sensor_id;sensor_type;location;lat;lon;timestamp;pressure;altitude;pressure_sealevel;temperature;humidity
32181;BME280;19172;51.504;3.894;2022-07-23T00:00:26;101813.63;;;24.70;92.84
32181;BME280;19172;51.504;3.894;2022-07-23T00:02:54;101814.78;;;24.65;93.79
32181;BME280;19172;51.504;3.894;2022-07-23T00:05:22;101819.41;;;24.40;93.07
32181;BME280;19172;51.504;3.894;2022-07-23T00:07:50;101805.88;;;24.85;92.29
32181;BME280;19172;51.504;3.894;2022-07-23T00:10:18;101812.56;;;24.53;93.65
32181;BME280;19172;51.504;3.894;2022-07-23T00:12:46;101806.06;;;24.35;97.10
32181;BME280;19172;51.504;3.894;2022-07-23T00:15:16;101812.47;;;24.33;95.24
32181;BME280;19172;51.504;3.894;2022-07-23T00:17:44;101803.31;;;24.80;94.33
32181;BME280;19172;51.504;3.894;2022-07-23T00:20:12;101806.69;;;24.87;93.00
32181;BME280;19172;51.504;3.894;2022-07-23T00:22:52;101808.44;;;24.66;93.31
32181;BME280;19172;51.504;3.894;2022-07-23T00:25:22;101801.59;;;24.79;91.89
32181;BME280;19172;51.504;3.894;2022-07-23T00:27:59;101801.22;;;24.88;89.58
32181;BME280;19172;51.504;3.894;2022-07-23T00:30:29;101790.00;;;24.75;93.72
32181;BME280;19172;51.504;3.894;2022-07-23T00:33:03;101783.91;;;24.92;93.36
32181;BME280;19172;51.504;3.894;2022-07-23T00:35:34;101791.00;;;24.73;91.39
32181;BME280;19172;51.504;3.894;2022-07-23T00:38:03;101783.22;;;24.87;90.34
32181;BME280;19172;51.504;3.894;2022-07-23T00:40:32;101784.22;;;24.63;92.28
32181;BME280;19172;51.504;3.894;2022-07-23T00:43:02;101789.81;;;24.58;94.31
32181;BME280;19172;51.504;3.894;2022-07-23T00:45:30;101782.28;;;24.66;92.76
32181;BME280;19172;51.504;3.894;2022-07-23T00:47:59;101781.19;;;24.92;92.26
32181;BME280;19172;51.504;3.894;2022-07-23T00:50:28;101779.50;;;24.90;90.86
32181;BME280;19172;51.504;3.894;2022-07-23T00:52:56;101782.47;;;24.84;91.62
32181;BME280;19172;51.504;3.894;2022-07-23T00:55:24;101782.81;;;24.74;90.89
32181;BME280;19172;51.504;3.894;2022-07-23T00:57:55;101781.91;;;24.75;91.67
32181;BME280;19172;51.504;3.894;2022-07-23T01:00:22;101778.66;;;25.09;89.36
32181;BME280;19172;51.504;3.894;2022-07-23T01:02:50;101773.53;;;25.03;88.27
32181;BME280;19172;51.504;3.894;2022-07-23T01:05:18;101775.19;;;24.86;90.02
32181;BME280;19172;51.504;3.894;2022-07-23T01:07:51;101777.41;;;24.74;89.83
32181;BME280;19172;51.504;3.894;2022-07-23T01:10:23;101765.59;;;24.77;90.65
32181;BME280;19172;51.504;3.894;2022-07-23T01:13:05;101768.19;;;25.22;88.47
32181;BME280;19172;51.504;3.894;2022-07-23T01:15:35;101778.97;;;25.23;86.61
32181;BME280;19172;51.504;3.894;2022-07-23T01:18:06;101769.78;;;24.86;87.61
32181;BME280;19172;51.504;3.894;2022-07-23T01:20:36;101767.63;;;24.72;85.81
32181;BME280;19172;51.504;3.894;2022-07-23T01:23:04;101771.13;;;24.52;89.22
32181;BME280;19172;51.504;3.894;2022-07-23T01:25:33;101766.59;;;24.53;89.95
32181;BME280;19172;51.504;3.894;2022-07-23T01:28:03;101769.63;;;24.45;89.21
32181;BME280;19172;51.504;3.894;2022-07-23T01:30:30;101764.16;;;24.47;90.03
32181;BME280;19172;51.504;3.894;2022-07-23T01:32:59;101769.34;;;24.73;89.46
32181;BME280;19172;51.504;3.894;2022-07-23T01:35:27;101771.63;;;24.62;88.08
32181;BME280;19172;51.504;3.894;2022-07-23T01:38:00;101769.56;;;24.90;87.08
32181;BME280;19172;51.504;3.894;2022-07-23T01:40:28;101773.38;;;25.06;86.94
32181;BME280;19172;51.504;3.894;2022-07-23T01:42:56;101775.16;;;25.27;85.76
32181;BME280;19172;51.504;3.894;2022-07-23T01:45:24;101779.44;;;25.33;84.73
32181;BME280;19172;51.504;3.894;2022-07-23T01:47:53;101773.88;;;25.36;83.73
32181;BME280;19172;51.504;3.894;2022-07-23T01:50:21;101780.44;;;25.10;83.89
32181;BME280;19172;51.504;3.894;2022-07-23T01:53:15;101775.91;;;25.11;84.57
32181;BME280;19172;51.504;3.894;2022-07-23T01:55:43;101771.34;;;25.11;83.86
32181;BME280;19172;51.504;3.894;2022-07-23T01:58:11;101781.66;;;25.23;83.64
32181;BME280;19172;51.504;3.894;2022-07-23T02:00:39;101779.34;;;25.35;82.49
32181;BME280;19172;51.504;3.894;2022-07-23T02:03:07;101775.38;;;25.23;82.66
32181;BME280;19172;51.504;3.894;2022-07-23T02:05:37;101774.69;;;25.38;82.48
32181;BME280;19172;51.504;3.894;2022-07-23T02:08:04;101772.72;;;25.42;82.84
32181;BME280;19172;51.504;3.894;2022-07-23T02:10:35;101771.91;;;25.19;81.82
32181;BME280;19172;51.504;3.894;2022-07-23T02:13:04;101773.06;;;25.34;82.47
32181;BME280;19172;51.504;3.894;2022-07-23T02:15:33;101778.75;;;25.28;82.38
32181;BME280;19172;51.504;3.894;2022-07-23T02:18:01;101774.53;;;25.21;83.22
32181;BME280;19172;51.504;3.894;2022-07-23T02:20:28;101779.75;;;25.25;84.44
32181;BME280;19172;51.504;3.894;2022-07-23T02:22:56;101775.00;;;25.31;84.08
32181;BME280;19172;51.504;3.894;2022-07-23T02:25:24;101779.34;;;25.35;84.13
32181;BME280;19172;51.504;3.894;2022-07-23T02:27:56;101782.47;;;25.46;83.86
32181;BME280;19172;51.504;3.894;2022-07-23T02:30:24;101772.81;;;25.60;83.08
32181;BME280;19172;51.504;3.894;2022-07-23T02:32:52;101785.19;;;25.25;81.80
32181;BME280;19172;51.504;3.894;2022-07-23T02:35:20;101775.81;;;25.54;81.40
32181;BME280;19172;51.504;3.894;2022-07-23T02:37:47;101782.53;;;25.04;81.34
32181;BME280;19172;51.504;3.894;2022-07-23T02:40:15;101783.41;;;25.04;84.18
32181;BME280;19172;51.504;3.894;2022-07-23T02:42:43;101781.47;;;24.86;84.05
32181;BME280;19172;51.504;3.894;2022-07-23T02:45:11;101781.31;;;24.46;84.62
32181;BME280;19172;51.504;3.894;2022-07-23T02:47:40;101786.09;;;24.61;85.71
32181;BME280;19172;51.504;3.894;2022-07-23T02:50:09;101788.91;;;24.58;86.95
32181;BME280;19172;51.504;3.894;2022-07-23T02:52:38;101784.59;;;24.75;86.83
32181;BME280;19172;51.504;3.894;2022-07-23T02:55:07;101788.63;;;24.87;83.64
32181;BME280;19172;51.504;3.894;2022-07-23T02:57:35;101794.50;;;24.98;84.40
32181;BME280;19172;51.504;3.894;2022-07-23T03:00:04;101797.44;;;24.92;84.72
32181;BME280;19172;51.504;3.894;2022-07-23T03:02:33;101795.56;;;24.94;83.50
32181;BME280;19172;51.504;3.894;2022-07-23T03:05:00;101802.31;;;24.61;84.87
32181;BME280;19172;51.504;3.894;2022-07-23T03:07:28;101802.53;;;24.78;86.31
32181;BME280;19172;51.504;3.894;2022-07-23T03:09:56;101801.28;;;24.87;84.81
32181;BME280;19172;51.504;3.894;2022-07-23T03:12:24;101803.84;;;24.90;83.28
32181;BME280;19172;51.504;3.894;2022-07-23T03:14:52;101800.69;;;24.79;83.41
32181;BME280;19172;51.504;3.894;2022-07-23T03:17:19;101803.91;;;24.66;85.33
32181;BME280;19172;51.504;3.894;2022-07-23T03:19:47;101802.78;;;24.72;85.17
32181;BME280;19172;51.504;3.894;2022-07-23T03:22:15;101808.34;;;24.67;83.71
32181;BME280;19172;51.504;3.894;2022-07-23T03:24:44;101815.91;;;24.59;84.12
32181;BME280;19172;51.504;3.894;2022-07-23T03:27:26;101807.56;;;24.65;85.31
32181;BME280;19172;51.504;3.894;2022-07-23T03:29:58;101811.66;;;24.75;83.56
32181;BME280;19172;51.504;3.894;2022-07-23T03:32:26;101806.91;;;24.59;84.12
32181;BME280;19172;51.504;3.894;2022-07-23T03:34:55;101808.75;;;24.58;85.62
32181;BME280;19172;51.504;3.894;2022-07-23T03:37:23;101810.38;;;24.62;85.89
32181;BME280;19172;51.504;3.894;2022-07-23T03:39:51;101811.28;;;24.63;86.42
32181;BME280;19172;51.504;3.894;2022-07-23T03:42:18;101813.97;;;24.63;86.07
32181;BME280;19172;51.504;3.894;2022-07-23T03:44:47;101813.72;;;24.69;85.75
32181;BME280;19172;51.504;3.894;2022-07-23T03:47:14;101810.88;;;24.72;86.07
32181;BME280;19172;51.504;3.894;2022-07-23T03:49:44;101810.63;;;24.78;85.30
32181;BME280;19172;51.504;3.894;2022-07-23T03:52:12;101813.34;;;24.78;84.82
32181;BME280;19172;51.504;3.894;2022-07-23T03:54:40;101810.41;;;24.84;84.18
32181;BME280;19172;51.504;3.894;2022-07-23T03:57:08;101812.47;;;24.77;84.82
32181;BME280;19172;51.504;3.894;2022-07-23T03:59:36;101814.16;;;24.80;84.74
32181;BME280;19172;51.504;3.894;2022-07-23T04:02:04;101818.00;;;24.74;83.38
32181;BME280;19172;51.504;3.894;2022-07-23T04:04:31;101810.63;;;24.78;83.82
32181;BME280;19172;51.504;3.894;2022-07-23T04:06:59;101815.03;;;24.81;83.02
32181;BME280;19172;51.504;3.894;2022-07-23T04:09:29;101816.44;;;24.69;84.08
32181;BME280;19172;51.504;3.894;2022-07-23T04:11:57;101810.44;;;24.61;84.88
32181;BME280;19172;51.504;3.894;2022-07-23T04:14:25;101810.44;;;24.61;85.80
32181;BME280;19172;51.504;3.894;2022-07-23T04:16:54;101811.16;;;24.66;84.81
32181;BME280;19172;51.504;3.894;2022-07-23T04:19:22;101806.72;;;24.63;84.60
32181;BME280;19172;51.504;3.894;2022-07-23T04:22:01;101809.25;;;24.68;84.62
32181;BME280;19172;51.504;3.894;2022-07-23T04:24:30;101811.44;;;24.58;85.06
32181;BME280;19172;51.504;3.894;2022-07-23T04:27:00;101807.59;;;24.64;85.20
32181;BME280;19172;51.504;3.894;2022-07-23T04:29:29;101809.84;;;24.76;84.27
32181;BME280;19172;51.504;3.894;2022-07-23T04:31:57;101808.47;;;24.64;84.51
32181;BME280;19172;51.504;3.894;2022-07-23T04:34:25;101806.50;;;24.69;84.22
32181;BME280;19172;51.504;3.894;2022-07-23T04:36:54;101803.75;;;24.48;85.94
32181;BME280;19172;51.504;3.894;2022-07-23T04:39:22;101807.84;;;24.58;86.50
32181;BME280;19172;51.504;3.894;2022-07-23T04:41:50;101812.63;;;24.51;85.72
32181;BME280;19172;51.504;3.894;2022-07-23T04:44:18;101809.72;;;24.34;86.76
32181;BME280;19172;51.504;3.894;2022-07-23T04:46:47;101816.97;;;24.55;88.89
32181;BME280;19172;51.504;3.894;2022-07-23T04:49:14;101820.06;;;24.68;88.62
32181;BME280;19172;51.504;3.894;2022-07-23T04:51:42;101825.72;;;24.85;87.98
32181;BME280;19172;51.504;3.894;2022-07-23T04:54:10;101826.31;;;25.13;84.79
32181;BME280;19172;51.504;3.894;2022-07-23T04:56:38;101822.16;;;25.05;83.18
32181;BME280;19172;51.504;3.894;2022-07-23T04:59:06;101831.47;;;24.76;84.07
32181;BME280;19172;51.504;3.894;2022-07-23T05:01:34;101831.94;;;24.64;86.16
32181;BME280;19172;51.504;3.894;2022-07-23T05:04:01;101827.81;;;24.32;87.24
32181;BME280;19172;51.504;3.894;2022-07-23T05:06:33;101833.22;;;24.32;88.22
32181;BME280;19172;51.504;3.894;2022-07-23T05:09:01;101833.97;;;24.82;86.74
32181;BME280;19172;51.504;3.894;2022-07-23T05:11:30;101833.47;;;24.71;85.63
32181;BME280;19172;51.504;3.894;2022-07-23T05:13:58;101827.13;;;24.72;86.10
32181;BME280;19172;51.504;3.894;2022-07-23T05:16:25;101827.94;;;24.74;86.72
32181;BME280;19172;51.504;3.894;2022-07-23T05:18:58;101830.66;;;25.17;87.25
32181;BME280;19172;51.504;3.894;2022-07-23T05:21:26;101826.22;;;25.37;84.20
32181;BME280;19172;51.504;3.894;2022-07-23T05:23:54;101831.72;;;25.75;82.64
32181;BME280;19172;51.504;3.894;2022-07-23T05:26:21;101826.94;;;26.21;80.93
32181;BME280;19172;51.504;3.894;2022-07-23T05:28:50;101826.63;;;26.46;77.13
32181;BME280;19172;51.504;3.894;2022-07-23T05:31:20;101826.84;;;25.84;76.91
32181;BME280;19172;51.504;3.894;2022-07-23T05:33:47;101837.41;;;25.07;76.71
32181;BME280;19172;51.504;3.894;2022-07-23T05:36:15;101823.06;;;26.06;80.73
32181;BME280;19172;51.504;3.894;2022-07-23T05:38:50;101833.72;;;25.08;84.62
32181;BME280;19172;51.504;3.894;2022-07-23T05:41:18;101832.94;;;24.61;83.27
32181;BME280;19172;51.504;3.894;2022-07-23T05:43:45;101835.72;;;25.67;84.89
32181;BME280;19172;51.504;3.894;2022-07-23T05:46:15;101844.22;;;26.56;81.45
32181;BME280;19172;51.504;3.894;2022-07-23T05:48:46;101855.06;;;26.74;75.63
32181;BME280;19172;51.504;3.894;2022-07-23T05:51:49;101859.06;;;26.86;74.05
32181;BME280;19172;51.504;3.894;2022-07-23T05:54:22;101851.44;;;27.47;73.25
32181;BME280;19172;51.504;3.894;2022-07-23T05:56:51;101845.81;;;26.97;71.12
32181;BME280;19172;51.504;3.894;2022-07-23T05:59:20;101844.72;;;27.01;71.54
32181;BME280;19172;51.504;3.894;2022-07-23T06:01:47;101851.25;;;27.33;72.68
32181;BME280;19172;51.504;3.894;2022-07-23T06:04:16;101854.38;;;27.77;70.14
32181;BME280;19172;51.504;3.894;2022-07-23T06:06:55;101853.59;;;27.58;70.09
32181;BME280;19172;51.504;3.894;2022-07-23T06:09:22;101853.41;;;27.95;69.42
32181;BME280;19172;51.504;3.894;2022-07-23T06:11:50;101859.50;;;27.49;67.79
32181;BME280;19172;51.504;3.894;2022-07-23T06:14:18;101854.88;;;27.68;68.92
32181;BME280;19172;51.504;3.894;2022-07-23T06:16:55;101855.13;;;28.46;67.96
32181;BME280;19172;51.504;3.894;2022-07-23T06:19:23;101849.53;;;28.49;64.51
32181;BME280;19172;51.504;3.894;2022-07-23T06:21:51;101860.13;;;27.71;65.32
32181;BME280;19172;51.504;3.894;2022-07-23T06:24:19;101855.88;;;28.65;64.69
32181;BME280;19172;51.504;3.894;2022-07-23T06:26:48;101858.66;;;28.64;62.38
32181;BME280;19172;51.504;3.894;2022-07-23T06:29:16;101855.97;;;28.47;65.00
32181;BME280;19172;51.504;3.894;2022-07-23T06:31:44;101854.00;;;28.66;63.44
32181;BME280;19172;51.504;3.894;2022-07-23T06:34:14;101848.16;;;28.73;62.25
32181;BME280;19172;51.504;3.894;2022-07-23T06:36:42;101853.47;;;29.06;61.78
32181;BME280;19172;51.504;3.894;2022-07-23T06:39:09;101855.53;;;29.48;58.81
32181;BME280;19172;51.504;3.894;2022-07-23T06:41:37;101852.13;;;29.45;58.65
32181;BME280;19172;51.504;3.894;2022-07-23T06:44:05;101851.00;;;29.02;61.61
32181;BME280;19172;51.504;3.894;2022-07-23T06:46:35;101840.34;;;29.88;58.81
32181;BME280;19172;51.504;3.894;2022-07-23T06:49:03;101845.78;;;28.34;59.22
32181;BME280;19172;51.504;3.894;2022-07-23T06:51:32;101845.25;;;28.28;60.90
32181;BME280;19172;51.504;3.894;2022-07-23T06:54:02;101843.78;;;28.54;60.42
32181;BME280;19172;51.504;3.894;2022-07-23T06:56:29;101855.25;;;27.77;61.93
32181;BME280;19172;51.504;3.894;2022-07-23T06:58:57;101841.38;;;28.16;62.67
32181;BME280;19172;51.504;3.894;2022-07-23T07:01:27;101849.78;;;26.71;64.50
32181;BME280;19172;51.504;3.894;2022-07-23T07:03:54;101844.75;;;28.53;65.41
32181;BME280;19172;51.504;3.894;2022-07-23T07:06:22;101849.66;;;29.40;62.20
32181;BME280;19172;51.504;3.894;2022-07-23T07:08:50;101859.41;;;28.50;61.09
32181;BME280;19172;51.504;3.894;2022-07-23T07:11:18;101870.88;;;29.19;57.51
32181;BME280;19172;51.504;3.894;2022-07-23T07:13:45;101860.84;;;29.35;59.69
32181;BME280;19172;51.504;3.894;2022-07-23T07:16:13;101864.25;;;29.69;56.07
32181;BME280;19172;51.504;3.894;2022-07-23T07:18:41;101861.59;;;29.83;56.56
32181;BME280;19172;51.504;3.894;2022-07-23T07:21:09;101862.28;;;29.71;57.91
32181;BME280;19172;51.504;3.894;2022-07-23T07:23:36;101868.84;;;29.38;56.20
32181;BME280;19172;51.504;3.894;2022-07-23T07:26:04;101868.88;;;29.97;56.36
32181;BME280;19172;51.504;3.894;2022-07-23T07:28:32;101871.88;;;29.48;55.68
32181;BME280;19172;51.504;3.894;2022-07-23T07:31:00;101868.53;;;29.73;55.51
32181;BME280;19172;51.504;3.894;2022-07-23T07:33:28;101866.84;;;29.86;53.34
32181;BME280;19172;51.504;3.894;2022-07-23T07:35:56;101872.72;;;29.78;56.02
32181;BME280;19172;51.504;3.894;2022-07-23T07:38:24;101879.16;;;28.05;58.19
32181;BME280;19172;51.504;3.894;2022-07-23T07:40:51;101878.34;;;29.31;58.10
32181;BME280;19172;51.504;3.894;2022-07-23T07:43:19;101873.69;;;29.93;58.32
32181;BME280;19172;51.504;3.894;2022-07-23T07:45:47;101881.97;;;30.20;54.85
32181;BME280;19172;51.504;3.894;2022-07-23T07:48:15;101883.06;;;30.60;55.42
32181;BME280;19172;51.504;3.894;2022-07-23T07:50:43;101877.72;;;30.44;55.14
32181;BME280;19172;51.504;3.894;2022-07-23T07:53:11;101883.50;;;30.80;54.09
32181;BME280;19172;51.504;3.894;2022-07-23T07:55:38;101882.63;;;29.95;53.93
32181;BME280;19172;51.504;3.894;2022-07-23T07:58:06;101886.06;;;30.27;55.31
32181;BME280;19172;51.504;3.894;2022-07-23T08:00:34;101889.78;;;29.82;54.80
32181;BME280;19172;51.504;3.894;2022-07-23T08:03:02;101888.88;;;30.11;53.59
32181;BME280;19172;51.504;3.894;2022-07-23T08:05:30;101880.69;;;30.25;56.74
32181;BME280;19172;51.504;3.894;2022-07-23T08:07:59;101875.97;;;30.43;55.93
32181;BME280;19172;51.504;3.894;2022-07-23T08:10:28;101871.34;;;30.58;56.49
32181;BME280;19172;51.504;3.894;2022-07-23T08:12:57;101872.56;;;30.39;55.88
32181;BME280;19172;51.504;3.894;2022-07-23T08:15:28;101867.44;;;31.17;54.65
32181;BME280;19172;51.504;3.894;2022-07-23T08:17:56;101872.91;;;31.17;54.50
32181;BME280;19172;51.504;3.894;2022-07-23T08:20:25;101873.25;;;31.25;54.41
32181;BME280;19172;51.504;3.894;2022-07-23T08:22:56;101876.31;;;31.20;52.46
32181;BME280;19172;51.504;3.894;2022-07-23T08:25:27;101886.94;;;30.27;54.43
32181;BME280;19172;51.504;3.894;2022-07-23T08:27:57;101886.66;;;30.74;54.63
32181;BME280;19172;51.504;3.894;2022-07-23T08:30:26;101886.50;;;30.90;54.63
32181;BME280;19172;51.504;3.894;2022-07-23T08:33:00;101888.06;;;30.53;55.10
32181;BME280;19172;51.504;3.894;2022-07-23T08:38:03;101892.03;;;30.62;54.98
32181;BME280;19172;51.504;3.894;2022-07-23T08:40:34;101898.66;;;30.15;55.39
32181;BME280;19172;51.504;3.894;2022-07-23T08:43:11;101894.69;;;30.63;56.10
32181;BME280;19172;51.504;3.894;2022-07-23T08:45:41;101907.69;;;30.30;53.88
32181;BME280;19172;51.504;3.894;2022-07-23T08:48:16;101905.06;;;30.71;52.60
32181;BME280;19172;51.504;3.894;2022-07-23T08:50:47;101901.38;;;30.58;52.68
32181;BME280;19172;51.504;3.894;2022-07-23T08:53:16;101903.44;;;30.40;53.36
32181;BME280;19172;51.504;3.894;2022-07-23T08:55:47;101899.25;;;30.34;55.78
32181;BME280;19172;51.504;3.894;2022-07-23T08:58:15;101897.91;;;29.83;56.09
32181;BME280;19172;51.504;3.894;2022-07-23T09:00:44;101900.09;;;29.77;55.72
32181;BME280;19172;51.504;3.894;2022-07-23T09:03:21;101901.44;;;30.14;56.34
32181;BME280;19172;51.504;3.894;2022-07-23T09:05:51;101882.44;;;30.97;55.30
32181;BME280;19172;51.504;3.894;2022-07-23T09:08:25;101893.50;;;31.35;53.45
32181;BME280;19172;51.504;3.894;2022-07-23T09:11:02;101893.53;;;31.62;52.20
32181;BME280;19172;51.504;3.894;2022-07-23T09:16:09;101896.72;;;31.41;52.08
32181;BME280;19172;51.504;3.894;2022-07-23T09:18:43;101897.06;;;30.96;51.47
32181;BME280;19172;51.504;3.894;2022-07-23T09:26:36;101899.66;;;29.84;56.15
32181;BME280;19172;51.504;3.894;2022-07-23T09:29:19;101904.53;;;29.64;55.73
32181;BME280;19172;51.504;3.894;2022-07-23T09:31:50;101893.19;;;30.15;55.37
32181;BME280;19172;51.504;3.894;2022-07-23T09:34:24;101883.28;;;30.42;55.68
32181;BME280;19172;51.504;3.894;2022-07-23T09:36:56;101882.69;;;30.92;55.05
32181;BME280;19172;51.504;3.894;2022-07-23T09:39:31;101887.94;;;31.10;54.59
32181;BME280;19172;51.504;3.894;2022-07-23T09:42:25;101899.41;;;31.56;53.03
32181;BME280;19172;51.504;3.894;2022-07-23T09:44:56;101898.53;;;32.07;51.18
32181;BME280;19172;51.504;3.894;2022-07-23T09:47:27;101906.19;;;32.27;50.89
32181;BME280;19172;51.504;3.894;2022-07-23T09:52:29;101911.66;;;32.27;50.00
32181;BME280;19172;51.504;3.894;2022-07-23T09:55:03;101906.25;;;31.88;49.19
32181;BME280;19172;51.504;3.894;2022-07-23T09:57:32;101901.50;;;30.42;52.34
32181;BME280;19172;51.504;3.894;2022-07-23T10:00:04;101910.41;;;29.72;55.60
32181;BME280;19172;51.504;3.894;2022-07-23T10:02:33;101912.41;;;29.54;60.05
32181;BME280;19172;51.504;3.894;2022-07-23T10:05:21;101916.28;;;30.24;58.77
32181;BME280;19172;51.504;3.894;2022-07-23T10:08:11;101918.34;;;30.34;57.70
32181;BME280;19172;51.504;3.894;2022-07-23T10:10:40;101917.50;;;29.45;58.60
32181;BME280;19172;51.504;3.894;2022-07-23T10:13:27;101911.38;;;30.01;58.16
32181;BME280;19172;51.504;3.894;2022-07-23T10:16:16;101918.13;;;29.79;59.68
32181;BME280;19172;51.504;3.894;2022-07-23T10:18:46;101917.72;;;30.29;58.11
32181;BME280;19172;51.504;3.894;2022-07-23T10:21:21;101917.09;;;29.66;58.79
32181;BME280;19172;51.504;3.894;2022-07-23T10:24:16;101907.69;;;30.30;57.11
32181;BME280;19172;51.504;3.894;2022-07-23T10:27:13;101904.06;;;31.00;57.09
32181;BME280;19172;51.504;3.894;2022-07-23T10:29:58;101909.25;;;30.20;56.95
32181;BME280;19172;51.504;3.894;2022-07-23T10:35:19;101915.75;;;29.44;57.27
32181;BME280;19172;51.504;3.894;2022-07-23T10:37:54;101901.31;;;29.87;57.57
32181;BME280;19172;51.504;3.894;2022-07-23T10:40:23;101889.84;;;30.38;57.93
32181;BME280;19172;51.504;3.894;2022-07-23T10:42:52;101895.31;;;30.67;56.10
32181;BME280;19172;51.504;3.894;2022-07-23T10:45:33;101893.19;;;30.58;54.69
32181;BME280;19172;51.504;3.894;2022-07-23T10:48:14;101896.97;;;30.98;54.58
32181;BME280;19172;51.504;3.894;2022-07-23T10:50:44;101887.75;;;31.79;53.81
32181;BME280;19172;51.504;3.894;2022-07-23T10:53:17;101890.31;;;30.87;52.33
32181;BME280;19172;51.504;3.894;2022-07-23T10:55:49;101893.38;;;31.51;53.92
32181;BME280;19172;51.504;3.894;2022-07-23T10:58:45;101888.78;;;30.13;54.21
32181;BME280;19172;51.504;3.894;2022-07-23T11:01:32;101902.03;;;30.05;53.57
32181;BME280;19172;51.504;3.894;2022-07-23T11:04:02;101901.97;;;29.00;57.66
32181;BME280;19172;51.504;3.894;2022-07-23T11:09:39;101896.00;;;29.70;56.23
32181;BME280;19172;51.504;3.894;2022-07-23T11:17:32;101894.16;;;30.14;56.12
32181;BME280;19172;51.504;3.894;2022-07-23T11:22:58;101882.78;;;29.48;54.99
32181;BME280;19172;51.504;3.894;2022-07-23T11:28:09;101881.97;;;30.06;54.63
32181;BME280;19172;51.504;3.894;2022-07-23T11:30:40;101870.75;;;29.36;54.92
32181;BME280;19172;51.504;3.894;2022-07-23T11:35:38;101890.63;;;30.83;55.99
32181;BME280;19172;51.504;3.894;2022-07-23T11:38:22;101884.59;;;30.78;55.00
32181;BME280;19172;51.504;3.894;2022-07-23T11:40:53;101886.84;;;29.41;55.51
32181;BME280;19172;51.504;3.894;2022-07-23T11:43:22;101887.34;;;30.21;56.43
32181;BME280;19172;51.504;3.894;2022-07-23T11:45:53;101885.91;;;28.95;57.36
32181;BME280;19172;51.504;3.894;2022-07-23T11:48:23;101884.34;;;29.52;58.68
32181;BME280;19172;51.504;3.894;2022-07-23T11:50:52;101880.63;;;30.69;55.33
32181;BME280;19172;51.504;3.894;2022-07-23T11:53:33;101876.94;;;30.56;54.75
32181;BME280;19172;51.504;3.894;2022-07-23T11:58:32;101871.16;;;31.16;52.80
32181;BME280;19172;51.504;3.894;2022-07-23T12:01:00;101869.69;;;30.69;50.63
32181;BME280;19172;51.504;3.894;2022-07-23T12:03:28;101869.53;;;31.26;50.62
32181;BME280;19172;51.504;3.894;2022-07-23T12:05:57;101873.16;;;31.66;51.13
32181;BME280;19172;51.504;3.894;2022-07-23T12:08:26;101876.88;;;30.70;49.57
32181;BME280;19172;51.504;3.894;2022-07-23T12:10:53;101868.03;;;30.67;50.07
32181;BME280;19172;51.504;3.894;2022-07-23T12:13:22;101864.94;;;31.00;50.97
32181;BME280;19172;51.504;3.894;2022-07-23T12:15:53;101869.19;;;30.77;52.36
32181;BME280;19172;51.504;3.894;2022-07-23T12:18:24;101874.09;;;31.39;51.21
32181;BME280;19172;51.504;3.894;2022-07-23T12:20:56;101873.72;;;31.31;48.96
32181;BME280;19172;51.504;3.894;2022-07-23T12:23:26;101870.34;;;31.40;48.44
32181;BME280;19172;51.504;3.894;2022-07-23T12:25:54;101873.88;;;30.32;48.05
32181;BME280;19172;51.504;3.894;2022-07-23T12:28:28;101866.59;;;31.02;49.33
32181;BME280;19172;51.504;3.894;2022-07-23T12:30:57;101873.63;;;31.97;49.13
32181;BME280;19172;51.504;3.894;2022-07-23T12:33:39;101865.66;;;31.82;48.35
32181;BME280;19172;51.504;3.894;2022-07-23T12:36:09;101874.84;;;31.15;47.78
32181;BME280;19172;51.504;3.894;2022-07-23T12:38:46;101866.25;;;32.12;48.40
32181;BME280;19172;51.504;3.894;2022-07-23T12:41:16;101865.22;;;32.64;47.61
32181;BME280;19172;51.504;3.894;2022-07-23T12:43:45;101874.41;;;32.63;44.82
32181;BME280;19172;51.504;3.894;2022-07-23T12:46:16;101863.72;;;32.34;43.97
32181;BME280;19172;51.504;3.894;2022-07-23T12:51:19;101857.84;;;31.63;47.54
32181;BME280;19172;51.504;3.894;2022-07-23T12:53:51;101854.91;;;31.79;48.01
32181;BME280;19172;51.504;3.894;2022-07-23T12:56:33;101854.69;;;31.82;47.45
32181;BME280;19172;51.504;3.894;2022-07-23T13:01:39;101857.25;;;32.10;47.15
32181;BME280;19172;51.504;3.894;2022-07-23T13:04:13;101840.94;;;32.21;46.35
32181;BME280;19172;51.504;3.894;2022-07-23T13:06:47;101844.41;;;32.48;46.04
32181;BME280;19172;51.504;3.894;2022-07-23T13:09:18;101851.19;;;32.43;45.48
32181;BME280;19172;51.504;3.894;2022-07-23T13:11:48;101852.59;;;31.60;45.70
32181;BME280;19172;51.504;3.894;2022-07-23T13:14:18;101849.56;;;31.77;46.06
32181;BME280;19172;51.504;3.894;2022-07-23T13:16:49;101845.66;;;32.32;45.33
32181;BME280;19172;51.504;3.894;2022-07-23T13:19:18;101839.28;;;31.81;45.98
32181;BME280;19172;51.504;3.894;2022-07-23T13:21:46;101843.06;;;31.53;46.11
32181;BME280;19172;51.504;3.894;2022-07-23T13:24:14;101840.63;;;31.48;46.19
32181;BME280;19172;51.504;3.894;2022-07-23T13:26:42;101848.56;;;31.66;46.11
32181;BME280;19172;51.504;3.894;2022-07-23T13:29:09;101850.00;;;31.71;45.46
32181;BME280;19172;51.504;3.894;2022-07-23T13:31:38;101847.94;;;32.00;46.61
32181;BME280;19172;51.504;3.894;2022-07-23T13:34:06;101848.22;;;31.58;46.76
32181;BME280;19172;51.504;3.894;2022-07-23T13:36:35;101843.06;;;31.53;46.71
32181;BME280;19172;51.504;3.894;2022-07-23T13:39:04;101841.28;;;32.04;47.02
32181;BME280;19172;51.504;3.894;2022-07-23T13:41:32;101845.09;;;32.02;47.54
32181;BME280;19172;51.504;3.894;2022-07-23T13:44:00;101841.03;;;31.94;47.16
32181;BME280;19172;51.504;3.894;2022-07-23T13:46:28;101842.91;;;31.94;46.90